sensor_id;sensor_type;location;lat;lon;timestamp;pressure;altitude;pressure_sealevel;temperature;humidity
69239;BME280;56349;51.816;-0.026;2023-04-27T00:01:56;101312.09;;;21.32;34.61
69239;BME280;56349;51.816;-0.026;2023-04-27T00:04:21;101308.85;;;21.25;34.69
69239;BME280;56349;51.816;-0.026;2023-04-27T00:06:48;101313.58;;;21.47;34.72
69239;BME280;56349;51.816;-0.026;2023-04-27T00:09:14;101318.34;;;21.15;34.79
69239;BME280;56349;51.816;-0.026;2023-04-27T00:11:40;101320.14;;;21.36;34.83
69239;BME280;56349;51.816;-0.026;2023-04-27T00:14:06;101320.38;;;21.02;34.91
69239;BME280;56349;51.816;-0.026;2023-04-27T00:16:31;101321.21;;;20.96;34.99
69239;BME280;56349;51.816;-0.026;2023-04-27T00:18:57;101321.43;;;21.17;35.06
69239;BME280;56349;51.816;-0.026;2023-04-27T00:21:23;101319.07;;;20.87;35.08
69239;BME280;56349;51.816;-0.026;2023-04-27T00:23:48;101315.59;;;20.84;35.13
69239;BME280;56349;51.816;-0.026;2023-04-27T00:26:15;101310.48;;;21.06;35.19
69239;BME280;56349;51.816;-0.026;2023-04-27T00:28:40;101306.60;;;21.02;35.21
69239;BME280;56349;51.816;-0.026;2023-04-27T00:31:05;101303.73;;;20.96;35.27
69239;BME280;56349;51.816;-0.026;2023-04-27T00:33:31;101301.69;;;20.91;35.32
69239;BME280;56349;51.816;-0.026;2023-04-27T00:35:58;101294.00;;;20.85;35.36
69239;BME280;56349;51.816;-0.026;2023-04-27T00:38:23;101293.38;;;20.82;35.41
69239;BME280;56349;51.816;-0.026;2023-04-27T00:40:49;101291.29;;;20.77;35.46
69239;BME280;56349;51.816;-0.026;2023-04-27T00:43:15;101290.61;;;20.73;35.50
69239;BME280;56349;51.816;-0.026;2023-04-27T00:45:41;101292.77;;;20.91;35.55
69239;BME280;56349;51.816;-0.026;2023-04-27T00:48:07;101291.68;;;20.64;35.60
69239;BME280;56349;51.816;-0.026;2023-04-27T00:50:31;101290.07;;;20.82;35.65
69239;BME280;56349;51.816;-0.026;2023-04-27T00:52:58;101289.93;;;20.79;35.68
69239;BME280;56349;51.816;-0.026;2023-04-27T00:55:24;101289.81;;;20.54;35.70
69239;BME280;56349;51.816;-0.026;2023-04-27T00:57:50;101286.75;;;20.50;35.73
69239;BME280;56349;51.816;-0.026;2023-04-27T01:00:16;101284.71;;;20.68;35.78
69239;BME280;56349;51.816;-0.026;2023-04-27T01:02:42;101278.69;;;20.65;35.80
69239;BME280;56349;51.816;-0.026;2023-04-27T01:05:08;101276.46;;;20.39;35.85
69239;BME280;56349;51.816;-0.026;2023-04-27T01:07:36;101276.78;;;20.35;35.88
69239;BME280;56349;51.816;-0.026;2023-04-27T01:09:58;101274.97;;;20.32;35.92
69239;BME280;56349;51.816;-0.026;2023-04-27T01:12:24;101273.78;;;20.30;35.92
69239;BME280;56349;51.816;-0.026;2023-04-27T01:14:50;101271.81;;;20.27;35.93
69239;BME280;56349;51.816;-0.026;2023-04-27T01:17:17;101264.22;;;20.24;35.96
69239;BME280;56349;51.816;-0.026;2023-04-27T01:19:43;101256.88;;;20.21;36.00
69239;BME280;56349;51.816;-0.026;2023-04-27T01:22:08;101253.70;;;20.19;36.03
69239;BME280;56349;51.816;-0.026;2023-04-27T01:24:34;101252.04;;;20.16;36.04
69239;BME280;56349;51.816;-0.026;2023-04-27T01:27:00;101246.69;;;20.56;36.07
69239;BME280;56349;51.816;-0.026;2023-04-27T01:29:26;101246.33;;;20.30;36.11
69239;BME280;56349;51.816;-0.026;2023-04-27T01:31:52;101244.20;;;20.26;36.14
69239;BME280;56349;51.816;-0.026;2023-04-27T01:34:18;101243.93;;;20.00;36.19
69239;BME280;56349;51.816;-0.026;2023-04-27T01:36:44;101241.87;;;20.40;36.23
69239;BME280;56349;51.816;-0.026;2023-04-27T01:39:10;101243.83;;;20.37;36.24
69239;BME280;56349;51.816;-0.026;2023-04-27T01:41:35;101239.98;;;20.34;36.27
69239;BME280;56349;51.816;-0.026;2023-04-27T01:44:01;101233.34;;;20.32;36.29
69239;BME280;56349;51.816;-0.026;2023-04-27T01:46:27;101231.97;;;20.28;36.32
69239;BME280;56349;51.816;-0.026;2023-04-27T01:48:53;101231.74;;;20.03;36.35
69239;BME280;56349;51.816;-0.026;2023-04-27T01:51:19;101233.41;;;20.22;36.39
69239;BME280;56349;51.816;-0.026;2023-04-27T01:53:45;101235.09;;;20.19;36.42
69239;BME280;56349;51.816;-0.026;2023-04-27T01:56:11;101236.84;;;19.94;36.44
69239;BME280;56349;51.816;-0.026;2023-04-27T01:58:37;101240.65;;;19.91;36.47
69239;BME280;56349;51.816;-0.026;2023-04-27T02:01:03;101247.33;;;19.66;36.49
69239;BME280;56349;51.816;-0.026;2023-04-27T02:03:29;101245.65;;;20.08;36.50
69239;BME280;56349;51.816;-0.026;2023-04-27T02:05:55;101241.73;;;20.06;36.50
69239;BME280;56349;51.816;-0.026;2023-04-27T02:08:20;101243.77;;;20.04;36.53
69239;BME280;56349;51.816;-0.026;2023-04-27T02:10:46;101245.68;;;19.79;36.54
69239;BME280;56349;51.816;-0.026;2023-04-27T02:13:12;101247.48;;;19.99;36.56
69239;BME280;56349;51.816;-0.026;2023-04-27T02:15:38;101246.61;;;19.76;36.56
69239;BME280;56349;51.816;-0.026;2023-04-27T02:18:04;101250.47;;;19.96;36.57
69239;BME280;56349;51.816;-0.026;2023-04-27T02:20:29;101250.65;;;19.95;36.56
69239;BME280;56349;51.816;-0.026;2023-04-27T02:22:55;101253.58;;;19.93;36.58
69239;BME280;56349;51.816;-0.026;2023-04-27T02:25:21;101252.19;;;19.88;36.62
69239;BME280;56349;51.816;-0.026;2023-04-27T02:27:47;101251.31;;;19.85;36.64
69239;BME280;56349;51.816;-0.026;2023-04-27T02:30:13;101253.22;;;19.83;36.66
69239;BME280;56349;51.816;-0.026;2023-04-27T02:32:38;101256.07;;;20.07;36.69
69239;BME280;56349;51.816;-0.026;2023-04-27T02:35:05;101257.38;;;19.78;36.68
69239;BME280;56349;51.816;-0.026;2023-04-27T02:37:30;101255.99;;;20.04;36.69
69239;BME280;56349;51.816;-0.026;2023-04-27T02:39:56;101255.68;;;19.52;36.71
69239;BME280;56349;51.816;-0.026;2023-04-27T02:42:22;101257.94;;;19.51;36.72
69239;BME280;56349;51.816;-0.026;2023-04-27T02:44:48;101258.97;;;19.72;36.72
69239;BME280;56349;51.816;-0.026;2023-04-27T02:47:14;101260.93;;;19.96;36.74
69239;BME280;56349;51.816;-0.026;2023-04-27T02:49:40;101258.57;;;19.67;36.76
69239;BME280;56349;51.816;-0.026;2023-04-27T02:52:06;101258.20;;;19.66;36.76
69239;BME280;56349;51.816;-0.026;2023-04-27T02:54:31;101254.16;;;19.72;36.67
69239;BME280;56349;51.816;-0.026;2023-04-27T02:56:57;101254.40;;;19.79;36.53
69239;BME280;56349;51.816;-0.026;2023-04-27T02:59:23;101256.88;;;19.83;36.47
69239;BME280;56349;51.816;-0.026;2023-04-27T03:01:49;101254.34;;;19.85;36.42
69239;BME280;56349;51.816;-0.026;2023-04-27T03:04:15;101251.26;;;19.85;36.40
69239;BME280;56349;51.816;-0.026;2023-04-27T03:06:40;101251.90;;;19.74;36.51
69239;BME280;56349;51.816;-0.026;2023-04-27T03:09:06;101250.45;;;19.66;36.60
69239;BME280;56349;51.816;-0.026;2023-04-27T03:11:31;101252.45;;;19.62;36.67
69239;BME280;56349;51.816;-0.026;2023-04-27T03:13:57;101250.50;;;19.83;36.70
69239;BME280;56349;51.816;-0.026;2023-04-27T03:16:23;101252.19;;;19.53;36.74
69239;BME280;56349;51.816;-0.026;2023-04-27T03:18:49;101251.39;;;19.49;36.77
69239;BME280;56349;51.816;-0.026;2023-04-27T03:21:15;101250.69;;;19.46;36.79
69239;BME280;56349;51.816;-0.026;2023-04-27T03:23:41;101250.15;;;19.42;36.81
69239;BME280;56349;51.816;-0.026;2023-04-27T03:26:08;101247.74;;;19.39;36.83
69239;BME280;56349;51.816;-0.026;2023-04-27T03:28:33;101246.51;;;19.37;36.84
69239;BME280;56349;51.816;-0.026;2023-04-27T03:30:58;101243.97;;;19.35;36.93
69239;BME280;56349;51.816;-0.026;2023-04-27T03:33:24;101242.58;;;19.37;37.07
69239;BME280;56349;51.816;-0.026;2023-04-27T03:35:54;101245.05;;;19.47;37.18
69239;BME280;56349;51.816;-0.026;2023-04-27T03:38:15;101245.88;;;19.62;37.15
69239;BME280;56349;51.816;-0.026;2023-04-27T03:40:41;101242.79;;;19.59;37.01
69239;BME280;56349;51.816;-0.026;2023-04-27T03:43:07;101243.09;;;20.06;36.80
69239;BME280;56349;51.816;-0.026;2023-04-27T03:45:33;101242.27;;;19.85;36.53
69239;BME280;56349;51.816;-0.026;2023-04-27T03:47:59;101240.74;;;20.09;36.20
69239;BME280;56349;51.816;-0.026;2023-04-27T03:50:24;101241.17;;;20.29;35.90
69239;BME280;56349;51.816;-0.026;2023-04-27T03:52:50;101238.82;;;20.67;35.61
69239;BME280;56349;51.816;-0.026;2023-04-27T03:55:16;101238.76;;;20.53;35.39
69239;BME280;56349;51.816;-0.026;2023-04-27T03:57:42;101236.99;;;20.57;35.24
69239;BME280;56349;51.816;-0.026;2023-04-27T04:00:09;101231.95;;;20.58;35.11
69239;BME280;56349;51.816;-0.026;2023-04-27T04:02:33;101225.12;;;20.55;35.03
69239;BME280;56349;51.816;-0.026;2023-04-27T04:04:59;101222.85;;;20.51;34.97
69239;BME280;56349;51.816;-0.026;2023-04-27T04:07:25;101217.97;;;20.48;34.92
69239;BME280;56349;51.816;-0.026;2023-04-27T04:09:51;101216.07;;;20.42;34.90
69239;BME280;56349;51.816;-0.026;2023-04-27T04:12:17;101217.00;;;20.35;34.90
69239;BME280;56349;51.816;-0.026;2023-04-27T04:14:43;101217.03;;;20.29;34.90
69239;BME280;56349;51.816;-0.026;2023-04-27T04:17:09;101216.14;;;20.43;34.93
69239;BME280;56349;51.816;-0.026;2023-04-27T04:19:35;101211.57;;;20.35;34.97
69239;BME280;56349;51.816;-0.026;2023-04-27T04:22:01;101208.73;;;20.04;35.00
69239;BME280;56349;51.816;-0.026;2023-04-27T04:24:27;101208.21;;;20.41;35.06
69239;BME280;56349;51.816;-0.026;2023-04-27T04:26:52;101202.42;;;20.12;35.09
69239;BME280;56349;51.816;-0.026;2023-04-27T04:29:18;101197.66;;;19.82;35.14
69239;BME280;56349;51.816;-0.026;2023-04-27T04:31:44;101191.58;;;20.16;35.22
69239;BME280;56349;51.816;-0.026;2023-04-27T04:34:10;101190.87;;;19.85;35.30
69239;BME280;56349;51.816;-0.026;2023-04-27T04:36:36;101190.65;;;20.00;35.37
69239;BME280;56349;51.816;-0.026;2023-04-27T04:39:02;101196.52;;;19.92;35.43
69239;BME280;56349;51.816;-0.026;2023-04-27T04:41:28;101197.92;;;19.85;35.49
69239;BME280;56349;51.816;-0.026;2023-04-27T04:43:54;101195.61;;;19.80;35.54
69239;BME280;56349;51.816;-0.026;2023-04-27T04:46:20;101193.57;;;19.74;35.57
69239;BME280;56349;51.816;-0.026;2023-04-27T04:48:46;101189.79;;;19.69;35.63
69239;BME280;56349;51.816;-0.026;2023-04-27T04:51:12;101189.89;;;19.65;35.66
69239;BME280;56349;51.816;-0.026;2023-04-27T04:53:37;101191.38;;;19.60;35.72
69239;BME280;56349;51.816;-0.026;2023-04-27T04:56:08;101195.05;;;19.54;35.85
69239;BME280;56349;51.816;-0.026;2023-04-27T04:58:28;101196.74;;;19.29;35.97
69239;BME280;56349;51.816;-0.026;2023-04-27T05:00:54;101199.10;;;19.29;36.11
69239;BME280;56349;51.816;-0.026;2023-04-27T05:03:20;101197.38;;;19.48;36.29
69239;BME280;56349;51.816;-0.026;2023-04-27T05:05:47;101192.97;;;19.46;36.52
69239;BME280;56349;51.816;-0.026;2023-04-27T05:08:11;101192.69;;;19.45;36.74
69239;BME280;56349;51.816;-0.026;2023-04-27T05:10:36;101191.98;;;19.47;36.94
69239;BME280;56349;51.816;-0.026;2023-04-27T05:13:02;101193.25;;;19.75;37.15
69239;BME280;56349;51.816;-0.026;2023-04-27T05:15:28;101194.96;;;19.51;37.35
69239;BME280;56349;51.816;-0.026;2023-04-27T05:17:54;101199.73;;;19.54;37.51
69239;BME280;56349;51.816;-0.026;2023-04-27T05:20:20;101200.43;;;19.59;37.67
69239;BME280;56349;51.816;-0.026;2023-04-27T05:22:46;101197.67;;;19.64;37.79
69239;BME280;56349;51.816;-0.026;2023-04-27T05:25:12;101194.61;;;19.68;37.92
69239;BME280;56349;51.816;-0.026;2023-04-27T05:27:38;101191.79;;;19.74;37.97
69239;BME280;56349;51.816;-0.026;2023-04-27T05:30:05;101190.03;;;19.78;38.07
69239;BME280;56349;51.816;-0.026;2023-04-27T05:32:30;101193.96;;;19.62;38.14
69239;BME280;56349;51.816;-0.026;2023-04-27T05:34:56;101196.22;;;19.93;38.16
69239;BME280;56349;51.816;-0.026;2023-04-27T05:37:22;101195.68;;;19.99;38.17
69239;BME280;56349;51.816;-0.026;2023-04-27T05:39:48;101191.90;;;20.05;38.17
69239;BME280;56349;51.816;-0.026;2023-04-27T05:42:13;101187.11;;;20.10;38.16
69239;BME280;56349;51.816;-0.026;2023-04-27T05:44:39;101190.94;;;20.16;38.16
69239;BME280;56349;51.816;-0.026;2023-04-27T05:47:05;101192.00;;;20.21;38.13
69239;BME280;56349;51.816;-0.026;2023-04-27T05:49:31;101196.04;;;20.27;38.11
69239;BME280;56349;51.816;-0.026;2023-04-27T05:51:57;101199.07;;;20.10;38.09
69239;BME280;56349;51.816;-0.026;2023-04-27T05:54:23;101197.71;;;20.36;38.10
69239;BME280;56349;51.816;-0.026;2023-04-27T05:56:49;101198.29;;;20.41;38.08
69239;BME280;56349;51.816;-0.026;2023-04-27T05:59:14;101199.25;;;20.03;38.06
69239;BME280;56349;51.816;-0.026;2023-04-27T06:01:40;101200.89;;;20.55;37.99
69239;BME280;56349;51.816;-0.026;2023-04-27T06:04:06;101203.47;;;20.37;37.99
69239;BME280;56349;51.816;-0.026;2023-04-27T06:06:34;101202.66;;;20.40;37.99
69239;BME280;56349;51.816;-0.026;2023-04-27T06:08:58;101205.43;;;20.23;37.96
69239;BME280;56349;51.816;-0.026;2023-04-27T06:11:24;101209.09;;;20.27;37.95
69239;BME280;56349;51.816;-0.026;2023-04-27T06:13:50;101211.00;;;20.31;37.95
69239;BME280;56349;51.816;-0.026;2023-04-27T06:16:16;101212.43;;;20.35;37.92
69239;BME280;56349;51.816;-0.026;2023-04-27T06:18:42;101213.84;;;20.59;37.88
69239;BME280;56349;51.816;-0.026;2023-04-27T06:21:08;101214.17;;;20.42;37.80
69239;BME280;56349;51.816;-0.026;2023-04-27T06:23:34;101219.08;;;20.47;37.71
69239;BME280;56349;51.816;-0.026;2023-04-27T06:26:00;101219.59;;;20.93;37.62
69239;BME280;56349;51.816;-0.026;2023-04-27T06:28:26;101217.69;;;20.74;37.53
69239;BME280;56349;51.816;-0.026;2023-04-27T06:30:52;101213.50;;;20.53;37.33
69239;BME280;56349;51.816;-0.026;2023-04-27T06:33:17;101206.04;;;20.76;37.20
69239;BME280;56349;51.816;-0.026;2023-04-27T06:35:44;101200.66;;;20.54;37.18
69239;BME280;56349;51.816;-0.026;2023-04-27T06:38:08;101192.99;;;20.66;37.25
69239;BME280;56349;51.816;-0.026;2023-04-27T06:40:34;101190.92;;;20.99;37.27
69239;BME280;56349;51.816;-0.026;2023-04-27T06:42:59;101194.54;;;20.66;37.40
69239;BME280;56349;51.816;-0.026;2023-04-27T06:45:25;101194.27;;;20.87;37.25
69239;BME280;56349;51.816;-0.026;2023-04-27T06:47:50;101198.68;;;21.41;36.99
69239;BME280;56349;51.816;-0.026;2023-04-27T06:50:16;101201.01;;;21.43;36.69
69239;BME280;56349;51.816;-0.026;2023-04-27T06:52:42;101201.35;;;21.78;36.28
69239;BME280;56349;51.816;-0.026;2023-04-27T06:55:09;101201.21;;;21.92;35.78
69239;BME280;56349;51.816;-0.026;2023-04-27T06:57:34;101203.00;;;22.28;35.34
69239;BME280;56349;51.816;-0.026;2023-04-27T07:00:01;101204.09;;;22.40;34.91
69239;BME280;56349;51.816;-0.026;2023-04-27T07:02:26;101204.83;;;22.48;34.49
69239;BME280;56349;51.816;-0.026;2023-04-27T07:04:52;101198.96;;;22.81;34.09
69239;BME280;56349;51.816;-0.026;2023-04-27T07:07:18;101192.55;;;23.13;33.68
69239;BME280;56349;51.816;-0.026;2023-04-27T07:09:44;101182.62;;;23.44;33.28
69239;BME280;56349;51.816;-0.026;2023-04-27T07:12:10;101175.61;;;23.31;32.86
69239;BME280;56349;51.816;-0.026;2023-04-27T07:14:36;101171.28;;;23.63;32.43
69239;BME280;56349;51.816;-0.026;2023-04-27T07:17:02;101175.13;;;23.93;32.06
69239;BME280;56349;51.816;-0.026;2023-04-27T07:19:28;101176.33;;;23.98;31.69
69239;BME280;56349;51.816;-0.026;2023-04-27T07:21:54;101181.66;;;24.49;31.33
69239;BME280;56349;51.816;-0.026;2023-04-27T07:24:20;101187.57;;;24.04;30.99
69239;BME280;56349;51.816;-0.026;2023-04-27T07:26:46;101191.31;;;24.27;30.66
69239;BME280;56349;51.816;-0.026;2023-04-27T07:29:11;101189.80;;;24.78;30.34
69239;BME280;56349;51.816;-0.026;2023-04-27T07:31:37;101190.23;;;24.62;30.15
69239;BME280;56349;51.816;-0.026;2023-04-27T07:34:03;101190.11;;;25.02;29.94
69239;BME280;56349;51.816;-0.026;2023-04-27T07:36:29;101190.12;;;24.90;29.73
69239;BME280;56349;51.816;-0.026;2023-04-27T07:38:55;101189.94;;;24.98;29.58
69239;BME280;56349;51.816;-0.026;2023-04-27T07:41:21;101187.87;;;24.99;29.43
69239;BME280;56349;51.816;-0.026;2023-04-27T07:43:47;101184.98;;;25.22;29.34
69239;BME280;56349;51.816;-0.026;2023-04-27T07:46:12;101186.79;;;24.84;29.32
69239;BME280;56349;51.816;-0.026;2023-04-27T07:48:39;101188.36;;;24.99;29.27
69239;BME280;56349;51.816;-0.026;2023-04-27T07:51:04;101185.89;;;24.62;29.22
69239;BME280;56349;51.816;-0.026;2023-04-27T07:53:33;101187.12;;;24.74;29.28
69239;BME280;56349;51.816;-0.026;2023-04-27T07:55:56;101179.36;;;24.62;29.32
69239;BME280;56349;51.816;-0.026;2023-04-27T07:58:22;101183.14;;;24.48;29.39
69239;BME280;56349;51.816;-0.026;2023-04-27T08:00:48;101181.73;;;24.52;29.50
69239;BME280;56349;51.816;-0.026;2023-04-27T08:03:14;101178.61;;;23.80;29.72
69239;BME280;56349;51.816;-0.026;2023-04-27T08:05:39;101174.30;;;24.08;29.82
69239;BME280;56349;51.816;-0.026;2023-04-27T08:08:05;101168.84;;;23.86;29.91
69239;BME280;56349;51.816;-0.026;2023-04-27T08:10:31;101167.04;;;23.63;30.17
69239;BME280;56349;51.816;-0.026;2023-04-27T08:12:58;101161.10;;;23.65;30.33
69239;BME280;56349;51.816;-0.026;2023-04-27T08:15:23;101158.19;;;23.48;30.46
69239;BME280;56349;51.816;-0.026;2023-04-27T08:17:48;101160.19;;;23.32;30.76
69239;BME280;56349;51.816;-0.026;2023-04-27T08:20:14;101156.81;;;23.63;31.10
69239;BME280;56349;51.816;-0.026;2023-04-27T08:22:42;101156.94;;;22.96;31.45
69239;BME280;56349;51.816;-0.026;2023-04-27T08:25:07;101154.33;;;22.87;31.70
69239;BME280;56349;51.816;-0.026;2023-04-27T08:27:32;101158.39;;;23.09;31.84
69239;BME280;56349;51.816;-0.026;2023-04-27T08:29:58;101161.68;;;23.22;32.00
69239;BME280;56349;51.816;-0.026;2023-04-27T08:32:24;101160.61;;;23.10;32.23
69239;BME280;56349;51.816;-0.026;2023-04-27T08:34:50;101163.70;;;22.99;32.38
69239;BME280;56349;51.816;-0.026;2023-04-27T08:37:16;101163.67;;;22.81;32.44
69239;BME280;56349;51.816;-0.026;2023-04-27T08:39:42;101159.66;;;22.86;32.66
69239;BME280;56349;51.816;-0.026;2023-04-27T08:42:11;101163.51;;;22.40;32.82
69239;BME280;56349;51.816;-0.026;2023-04-27T08:44:37;101160.31;;;22.24;32.80
69239;BME280;56349;51.816;-0.026;2023-04-27T08:46:58;101162.42;;;22.36;33.03
69239;BME280;56349;51.816;-0.026;2023-04-27T08:49:25;101164.62;;;22.25;33.14
69239;BME280;56349;51.816;-0.026;2023-04-27T08:51:50;101159.35;;;22.35;33.24
69239;BME280;56349;51.816;-0.026;2023-04-27T08:54:16;101159.50;;;22.23;33.30
69239;BME280;56349;51.816;-0.026;2023-04-27T08:56:42;101165.73;;;22.13;33.34
69239;BME280;56349;51.816;-0.026;2023-04-27T08:59:13;101168.40;;;22.02;33.42
69239;BME280;56349;51.816;-0.026;2023-04-27T09:01:33;101161.91;;;21.93;33.47
69239;BME280;56349;51.816;-0.026;2023-04-27T09:04:00;101160.56;;;21.86;33.20
69239;BME280;56349;51.816;-0.026;2023-04-27T09:06:29;101170.39;;;21.72;31.58
69239;BME280;56349;51.816;-0.026;2023-04-27T09:08:50;101163.00;;;21.64;31.86
69239;BME280;56349;51.816;-0.026;2023-04-27T09:13:43;101152.02;;;22.05;32.52
69239;BME280;56349;51.816;-0.026;2023-04-27T09:16:08;101138.45;;;21.51;32.69
69239;BME280;56349;51.816;-0.026;2023-04-27T09:18:35;101137.02;;;21.69;32.79
69239;BME280;56349;51.816;-0.026;2023-04-27T09:20:59;101132.83;;;21.66;32.77
69239;BME280;56349;51.816;-0.026;2023-04-27T09:23:26;101133.10;;;21.39;32.77
69239;BME280;56349;51.816;-0.026;2023-04-27T09:25:49;101118.67;;;21.34;32.82
69239;BME280;56349;51.816;-0.026;2023-04-27T09:28:15;101122.07;;;21.52;32.82
69239;BME280;56349;51.816;-0.026;2023-04-27T09:30:49;101105.05;;;21.27;32.66
69239;BME280;56349;51.816;-0.026;2023-04-27T09:33:07;101107.54;;;21.23;32.71
69239;BME280;56349;51.816;-0.026;2023-04-27T09:35:33;101115.36;;;21.43;32.68
69239;BME280;56349;51.816;-0.026;2023-04-27T09:38:00;101115.73;;;21.39;32.62
69239;BME280;56349;51.816;-0.026;2023-04-27T09:40:26;101110.21;;;21.12;32.63
69239;BME280;56349;51.816;-0.026;2023-04-27T09:42:51;101101.22;;;21.29;32.63
69239;BME280;56349;51.816;-0.026;2023-04-27T09:45:16;101111.68;;;21.27;32.69
69239;BME280;56349;51.816;-0.026;2023-04-27T09:47:41;101104.15;;;21.51;32.67
69239;BME280;56349;51.816;-0.026;2023-04-27T09:50:07;101090.79;;;21.23;32.54
69239;BME280;56349;51.816;-0.026;2023-04-27T09:52:32;101124.75;;;21.23;32.50
69239;BME280;56349;51.816;-0.026;2023-04-27T09:54:58;101093.32;;;21.49;32.41
69239;BME280;56349;51.816;-0.026;2023-04-27T09:57:32;101099.17;;;21.20;32.20
69239;BME280;56349;51.816;-0.026;2023-04-27T10:00:00;101099.38;;;21.17;32.07
69239;BME280;56349;51.816;-0.026;2023-04-27T10:02:16;101091.98;;;21.18;32.16
69239;BME280;56349;51.816;-0.026;2023-04-27T10:04:51;101088.46;;;21.21;32.03
69239;BME280;56349;51.816;-0.026;2023-04-27T10:07:08;101081.70;;;21.24;32.20
69239;BME280;56349;51.816;-0.026;2023-04-27T10:09:36;101085.28;;;21.28;32.51
69239;BME280;56349;51.816;-0.026;2023-04-27T10:14:23;101085.93;;;21.35;32.73
69239;BME280;56349;51.816;-0.026;2023-04-27T10:16:52;101081.80;;;21.39;32.83
69239;BME280;56349;51.816;-0.026;2023-04-27T10:19:14;101076.12;;;21.19;32.85
69239;BME280;56349;51.816;-0.026;2023-04-27T10:24:07;101080.32;;;21.28;32.75
69239;BME280;56349;51.816;-0.026;2023-04-27T10:26:31;101076.59;;;21.34;32.63
69239;BME280;56349;51.816;-0.026;2023-04-27T10:29:04;101084.82;;;21.38;32.55
69239;BME280;56349;51.816;-0.026;2023-04-27T10:31:26;101082.65;;;21.40;32.53
69239;BME280;56349;51.816;-0.026;2023-04-27T10:33:48;101085.29;;;21.41;32.62
69239;BME280;56349;51.816;-0.026;2023-04-27T10:36:14;101086.08;;;21.41;32.57
69239;BME280;56349;51.816;-0.026;2023-04-27T10:38:40;101081.13;;;21.62;32.60
69239;BME280;56349;51.816;-0.026;2023-04-27T10:41:12;101076.88;;;21.58;32.55
69239;BME280;56349;51.816;-0.026;2023-04-27T10:43:34;101083.08;;;21.56;32.65
69239;BME280;56349;51.816;-0.026;2023-04-27T10:48:23;101079.42;;;21.52;32.77
69239;BME280;56349;51.816;-0.026;2023-04-27T10:50:50;101073.98;;;21.50;32.84
69239;BME280;56349;51.816;-0.026;2023-04-27T10:53:15;101069.46;;;21.49;32.90
69239;BME280;56349;51.816;-0.026;2023-04-27T10:55:40;101066.93;;;21.50;32.93
69239;BME280;56349;51.816;-0.026;2023-04-27T10:58:06;101057.72;;;21.49;32.99
69239;BME280;56349;51.816;-0.026;2023-04-27T11:00:34;101052.30;;;21.28;33.02
69239;BME280;56349;51.816;-0.026;2023-04-27T11:05:25;101039.93;;;21.24;32.96
69239;BME280;56349;51.816;-0.026;2023-04-27T11:07:49;101033.14;;;21.43;33.10
69239;BME280;56349;51.816;-0.026;2023-04-27T11:10:15;101035.77;;;21.18;33.16
69239;BME280;56349;51.816;-0.026;2023-04-27T11:12:40;101034.30;;;21.39;33.22
69239;BME280;56349;51.816;-0.026;2023-04-27T11:15:07;101031.36;;;21.37;33.22
69239;BME280;56349;51.816;-0.026;2023-04-27T11:17:32;101027.53;;;21.38;33.24
69239;BME280;56349;51.816;-0.026;2023-04-27T11:19:58;101028.62;;;21.36;33.19
69239;BME280;56349;51.816;-0.026;2023-04-27T11:22:23;101033.27;;;21.34;33.21
69239;BME280;56349;51.816;-0.026;2023-04-27T11:24:51;101032.82;;;21.07;33.26
69239;BME280;56349;51.816;-0.026;2023-04-27T11:27:16;101024.18;;;21.53;33.31
69239;BME280;56349;51.816;-0.026;2023-04-27T11:29:41;101018.40;;;21.51;33.33
69239;BME280;56349;51.816;-0.026;2023-04-27T11:32:07;101006.93;;;21.01;33.34
69239;BME280;56349;51.816;-0.026;2023-04-27T11:34:33;101001.70;;;21.22;33.35
69239;BME280;56349;51.816;-0.026;2023-04-27T11:37:00;100986.10;;;21.21;33.34
69239;BME280;56349;51.816;-0.026;2023-04-27T11:39:26;100987.32;;;21.21;33.36
69239;BME280;56349;51.816;-0.026;2023-04-27T11:41:51;100981.32;;;21.22;33.31
69239;BME280;56349;51.816;-0.026;2023-04-27T11:44:17;100969.76;;;21.20;33.32
69239;BME280;56349;51.816;-0.026;2023-04-27T11:46:43;100959.23;;;21.19;33.35
69239;BME280;56349;51.816;-0.026;2023-04-27T11:49:08;100966.85;;;21.18;33.35
69239;BME280;56349;51.816;-0.026;2023-04-27T11:51:34;100964.69;;;20.94;33.35
69239;BME280;56349;51.816;-0.026;2023-04-27T11:54:01;100969.20;;;20.93;33.35
69239;BME280;56349;51.816;-0.026;2023-04-27T11:56:33;100969.22;;;21.17;33.35
69239;BME280;56349;51.816;-0.026;2023-04-27T11:58:51;100962.77;;;21.17;33.32
69239;BME280;56349;51.816;-0.026;2023-04-27T12:01:16;100956.59;;;21.18;33.28
69239;BME280;56349;51.816;-0.026;2023-04-27T12:03:42;100950.24;;;20.95;33.29
69239;BME280;56349;51.816;-0.026;2023-04-27T12:06:08;100945.17;;;21.43;33.29
69239;BME280;56349;51.816;-0.026;2023-04-27T12:08:34;100944.46;;;21.15;33.28
69239;BME280;56349;51.816;-0.026;2023-04-27T12:11:00;100938.22;;;21.14;33.29
69239;BME280;56349;51.816;-0.026;2023-04-27T12:13:25;100944.33;;;20.90;33.29
69239;BME280;56349;51.816;-0.026;2023-04-27T12:15:51;100942.23;;;21.11;33.28
69239;BME280;56349;51.816;-0.026;2023-04-27T12:18:17;100942.30;;;21.08;33.28
69239;BME280;56349;51.816;-0.026;2023-04-27T12:20:43;100938.57;;;21.06;33.28
69239;BME280;56349;51.816;-0.026;2023-04-27T12:23:09;100932.04;;;21.04;33.27
69239;BME280;56349;51.816;-0.026;2023-04-27T12:25:35;100931.74;;;21.29;33.26
69239;BME280;56349;51.816;-0.026;2023-04-27T12:28:01;100929.73;;;21.23;33.28
69239;BME280;56349;51.816;-0.026;2023-04-27T12:30:26;100926.86;;;20.93;33.34
69239;BME280;56349;51.816;-0.026;2023-04-27T12:32:52;100928.13;;;20.93;33.40
69239;BME280;56349;51.816;-0.026;2023-04-27T12:35:18;100927.24;;;21.26;33.42
69239;BME280;56349;51.816;-0.026;2023-04-27T12:37:44;100925.33;;;21.14;33.37
69239;BME280;56349;51.816;-0.026;2023-04-27T12:40:10;100920.00;;;21.35;33.28
69239;BME280;56349;51.816;-0.026;2023-04-27T12:42:35;100916.38;;;21.40;33.11
69239;BME280;56349;51.816;-0.026;2023-04-27T12:45:01;100909.04;;;21.70;32.52